sensor_id;sensor_type;location;lat;lon;timestamp;pressure;altitude;pressure_sealevel;temperature;humidity
78373;BME280;67656;52.074;4.758;2023-04-01T00:03:22;99115.91;;;8.17;100.00
78373;BME280;67656;52.074;4.758;2023-04-01T00:08:24;99117.72;;;8.15;100.00
78373;BME280;67656;52.074;4.758;2023-04-01T00:13:26;99122.19;;;8.13;100.00
78373;BME280;67656;52.074;4.758;2023-04-01T00:18:26;99127.84;;;8.05;100.00
78373;BME280;67656;52.074;4.758;2023-04-01T00:23:26;99139.47;;;7.99;100.00
78373;BME280;67656;52.074;4.758;2023-04-01T00:28:27;99134.34;;;7.96;100.00
78373;BME280;67656;52.074;4.758;2023-04-01T00:33:28;99138.72;;;7.96;100.00
78373;BME280;67656;52.074;4.758;2023-04-01T00:38:28;99142.28;;;7.95;100.00
78373;BME280;67656;52.074;4.758;2023-04-01T00:43:29;99144.97;;;7.93;100.00
78373;BME280;67656;52.074;4.758;2023-04-01T00:48:38;99148.66;;;7.89;100.00
78373;BME280;67656;52.074;4.758;2023-04-01T00:53:41;99157.44;;;7.88;100.00
78373;BME280;67656;52.074;4.758;2023-04-01T00:58:46;99159.16;;;7.89;100.00
78373;BME280;67656;52.074;4.758;2023-04-01T01:03:48;99158.44;;;7.86;100.00
78373;BME280;67656;52.074;4.758;2023-04-01T01:14:22;99169.03;;;7.84;100.00
78373;BME280;67656;52.074;4.758;2023-04-01T01:19:57;99165.63;;;7.82;100.00
78373;BME280;67656;52.074;4.758;2023-04-01T01:25:54;99167.44;;;7.80;100.00
78373;BME280;67656;52.074;4.758;2023-04-01T01:31:02;99175.34;;;7.80;100.00
78373;BME280;67656;52.074;4.758;2023-04-01T01:36:06;99176.25;;;7.79;100.00
78373;BME280;67656;52.074;4.758;2023-04-01T01:41:12;99179.88;;;7.76;100.00
78373;BME280;67656;52.074;4.758;2023-04-01T01:46:21;99179.94;;;7.75;100.00
78373;BME280;67656;52.074;4.758;2023-04-01T01:51:23;99188.66;;;7.75;100.00
78373;BME280;67656;52.074;4.758;2023-04-01T01:56:26;99194.75;;;7.76;100.00
78373;BME280;67656;52.074;4.758;2023-04-01T02:01:30;99201.88;;;7.74;100.00
78373;BME280;67656;52.074;4.758;2023-04-01T02:06:42;99204.53;;;7.72;100.00
78373;BME280;67656;52.074;4.758;2023-04-01T02:11:49;99210.78;;;7.69;100.00
78373;BME280;67656;52.074;4.758;2023-04-01T02:16:56;99223.13;;;7.67;100.00
78373;BME280;67656;52.074;4.758;2023-04-01T02:22:00;99228.25;;;7.71;100.00
78373;BME280;67656;52.074;4.758;2023-04-01T02:27:01;99223.72;;;7.74;100.00
78373;BME280;67656;52.074;4.758;2023-04-01T02:32:04;99232.41;;;7.76;100.00
78373;BME280;67656;52.074;4.758;2023-04-01T02:37:06;99237.56;;;7.78;100.00
78373;BME280;67656;52.074;4.758;2023-04-01T02:42:06;99246.13;;;7.83;100.00
78373;BME280;67656;52.074;4.758;2023-04-01T02:47:06;99246.91;;;7.85;100.00
78373;BME280;67656;52.074;4.758;2023-04-01T02:52:07;99251.09;;;7.89;100.00
78373;BME280;67656;52.074;4.758;2023-04-01T02:57:07;99252.56;;;7.96;100.00
78373;BME280;67656;52.074;4.758;2023-04-01T03:02:08;99260.44;;;7.96;100.00
78373;BME280;67656;52.074;4.758;2023-04-01T03:07:08;99271.66;;;8.00;100.00
78373;BME280;67656;52.074;4.758;2023-04-01T03:12:09;99282.88;;;8.04;100.00
78373;BME280;67656;52.074;4.758;2023-04-01T03:17:20;99286.91;;;8.12;100.00
78373;BME280;67656;52.074;4.758;2023-04-01T03:22:20;99298.13;;;8.16;100.00
78373;BME280;67656;52.074;4.758;2023-04-01T03:27:21;99305.75;;;8.22;100.00
78373;BME280;67656;52.074;4.758;2023-04-01T03:32:21;99316.19;;;8.24;100.00
78373;BME280;67656;52.074;4.758;2023-04-01T03:37:23;99324.97;;;8.24;100.00
78373;BME280;67656;52.074;4.758;2023-04-01T03:42:24;99330.97;;;8.26;100.00
78373;BME280;67656;52.074;4.758;2023-04-01T03:47:24;99345.91;;;8.26;100.00
78373;BME280;67656;52.074;4.758;2023-04-01T03:52:25;99349.38;;;8.26;100.00
78373;BME280;67656;52.074;4.758;2023-04-01T03:57:25;99351.88;;;8.29;100.00
78373;BME280;67656;52.074;4.758;2023-04-01T04:02:26;99355.44;;;8.28;100.00
78373;BME280;67656;52.074;4.758;2023-04-01T04:07:27;99367.94;;;8.23;100.00
78373;BME280;67656;52.074;4.758;2023-04-01T04:12:37;99387.25;;;8.22;100.00
78373;BME280;67656;52.074;4.758;2023-04-01T04:17:38;99387.25;;;8.22;100.00
78373;BME280;67656;52.074;4.758;2023-04-01T04:22:39;99396.56;;;8.29;100.00
78373;BME280;67656;52.074;4.758;2023-04-01T04:27:41;99408.13;;;8.25;100.00
78373;BME280;67656;52.074;4.758;2023-04-01T04:32:44;99415.88;;;8.28;100.00
78373;BME280;67656;52.074;4.758;2023-04-01T04:37:46;99421.25;;;8.25;100.00
78373;BME280;67656;52.074;4.758;2023-04-01T04:42:47;99436.25;;;8.23;100.00
78373;BME280;67656;52.074;4.758;2023-04-01T04:47:49;99434.66;;;8.19;100.00
78373;BME280;67656;52.074;4.758;2023-04-01T04:52:51;99449.25;;;8.26;100.00
78373;BME280;67656;52.074;4.758;2023-04-01T04:57:52;99459.16;;;8.20;100.00
78373;BME280;67656;52.074;4.758;2023-04-01T05:02:52;99461.19;;;8.13;100.00
78373;BME280;67656;52.074;4.758;2023-04-01T05:07:53;99469.03;;;8.14;100.00
78373;BME280;67656;52.074;4.758;2023-04-01T05:12:54;99475.25;;;8.12;100.00
78373;BME280;67656;52.074;4.758;2023-04-01T05:17:56;99487.72;;;8.07;100.00
78373;BME280;67656;52.074;4.758;2023-04-01T05:23:01;99505.13;;;8.09;100.00
78373;BME280;67656;52.074;4.758;2023-04-01T05:28:01;99506.19;;;8.05;100.00
78373;BME280;67656;52.074;4.758;2023-04-01T05:33:02;99526.59;;;7.98;100.00
78373;BME280;67656;52.074;4.758;2023-04-01T05:38:03;99536.94;;;8.02;100.00
78373;BME280;67656;52.074;4.758;2023-04-01T05:43:04;99537.72;;;8.05;100.00
78373;BME280;67656;52.074;4.758;2023-04-01T05:48:05;99544.81;;;8.02;100.00
78373;BME280;67656;52.074;4.758;2023-04-01T05:59:14;99558.88;;;8.00;100.00
78373;BME280;67656;52.074;4.758;2023-04-01T06:09:54;99565.06;;;7.99;100.00
78373;BME280;67656;52.074;4.758;2023-04-01T06:15:04;99585.03;;;8.04;100.00
78373;BME280;67656;52.074;4.758;2023-04-01T06:25:53;99607.13;;;7.99;100.00
78373;BME280;67656;52.074;4.758;2023-04-01T06:30:44;99615.13;;;7.95;100.00
78373;BME280;67656;52.074;4.758;2023-04-01T06:41:33;99628.13;;;7.99;100.00
78373;BME280;67656;52.074;4.758;2023-04-01T06:46:58;99632.22;;;8.07;100.00
78373;BME280;67656;52.074;4.758;2023-04-01T06:53:06;99646.19;;;8.09;100.00
78373;BME280;67656;52.074;4.758;2023-04-01T06:58:39;99642.75;;;8.07;100.00
78373;BME280;67656;52.074;4.758;2023-04-01T07:03:53;99661.78;;;8.13;100.00
78373;BME280;67656;52.074;4.758;2023-04-01T07:08:59;99664.47;;;8.12;100.00
78373;BME280;67656;52.074;4.758;2023-04-01T07:14:34;99671.53;;;8.10;100.00
78373;BME280;67656;52.074;4.758;2023-04-01T07:19:53;99684.50;;;8.14;100.00
78373;BME280;67656;52.074;4.758;2023-04-01T07:25:02;99688.88;;;8.14;100.00
78373;BME280;67656;52.074;4.758;2023-04-01T07:40:49;99712.41;;;8.19;100.00
78373;BME280;67656;52.074;4.758;2023-04-01T07:46:13;99728.91;;;8.22;100.00
78373;BME280;67656;52.074;4.758;2023-04-01T07:51:27;99731.13;;;8.33;100.00
78373;BME280;67656;52.074;4.758;2023-04-01T07:57:02;99736.91;;;8.43;100.00
78373;BME280;67656;52.074;4.758;2023-04-01T08:02:43;99745.03;;;8.37;100.00
78373;BME280;67656;52.074;4.758;2023-04-01T08:07:51;99753.03;;;8.34;100.00
78373;BME280;67656;52.074;4.758;2023-04-01T08:24:42;99775.44;;;8.44;100.00
78373;BME280;67656;52.074;4.758;2023-04-01T08:30:04;99777.59;;;8.58;100.00
78373;BME280;67656;52.074;4.758;2023-04-01T08:35:17;99787.69;;;8.45;100.00
78373;BME280;67656;52.074;4.758;2023-04-01T08:41:03;99796.38;;;8.47;100.00
78373;BME280;67656;52.074;4.758;2023-04-01T08:57:37;99812.13;;;8.49;100.00
78373;BME280;67656;52.074;4.758;2023-04-01T09:32:04;99855.09;;;8.97;100.00
78373;BME280;67656;52.074;4.758;2023-04-01T09:37:35;99862.25;;;9.17;100.00
78373;BME280;67656;52.074;4.758;2023-04-01T09:54:04;99872.25;;;9.31;100.00
78373;BME280;67656;52.074;4.758;2023-04-01T09:59:33;99886.78;;;9.17;100.00
78373;BME280;67656;52.074;4.758;2023-04-01T10:16:21;99897.69;;;9.08;100.00
78373;BME280;67656;52.074;4.758;2023-04-01T10:27:14;99913.38;;;9.11;100.00
78373;BME280;67656;52.074;4.758;2023-04-01T11:07:15;99946.22;;;9.25;100.00
78373;BME280;67656;52.074;4.758;2023-04-01T11:28:47;99966.75;;;9.62;100.00
78373;BME280;67656;52.074;4.758;2023-04-01T11:34:11;99965.00;;;9.63;100.00
78373;BME280;67656;52.074;4.758;2023-04-01T11:39:32;99974.44;;;9.91;100.00
78373;BME280;67656;52.074;4.758;2023-04-01T11:51:02;99984.81;;;10.40;100.00
78373;BME280;67656;52.074;4.758;2023-04-01T12:07:02;100009.72;;;10.55;100.00
78373;BME280;67656;52.074;4.758;2023-04-01T12:29:31;100034.69;;;10.46;100.00
78373;BME280;67656;52.074;4.758;2023-04-01T12:40:20;100047.03;;;10.45;100.00
78373;BME280;67656;52.074;4.758;2023-04-01T12:45:42;100054.16;;;10.20;100.00
78373;BME280;67656;52.074;4.758;2023-04-01T12:51:23;100058.75;;;10.14;100.00
78373;BME280;67656;52.074;4.758;2023-04-01T13:17:39;100089.16;;;10.01;100.00
78373;BME280;67656;52.074;4.758;2023-04-01T13:44:14;100108.81;;;9.92;100.00
78373;BME280;67656;52.074;4.758;2023-04-01T13:49:34;100123.38;;;10.03;100.00
78373;BME280;67656;52.074;4.758;2023-04-01T14:00:38;100134.44;;;9.89;100.00
78373;BME280;67656;52.074;4.758;2023-04-01T14:06:05;100145.00;;;9.87;100.00
78373;BME280;67656;52.074;4.758;2023-04-01T14:21:58;100172.00;;;9.94;100.00
78373;BME280;67656;52.074;4.758;2023-04-01T14:48:59;100217.09;;;9.61;100.00
78373;BME280;67656;52.074;4.758;2023-04-01T14:54:13;100224.19;;;9.59;100.00
78373;BME280;67656;52.074;4.758;2023-04-01T15:04:41;100243.63;;;9.55;100.00
78373;BME280;67656;52.074;4.758;2023-04-01T15:15:38;100255.06;;;9.27;100.00
78373;BME280;67656;52.074;4.758;2023-04-01T15:21:02;100266.63;;;9.22;100.00
78373;BME280;67656;52.074;4.758;2023-04-01T15:59:34;100343.84;;;8.93;100.00
78373;BME280;67656;52.074;4.758;2023-04-01T16:04:59;100345.88;;;8.83;100.00
78373;BME280;67656;52.074;4.758;2023-04-01T16:15:30;100365.19;;;8.82;100.00
78373;BME280;67656;52.074;4.758;2023-04-01T16:20:57;100381.88;;;8.81;100.00
78373;BME280;67656;52.074;4.758;2023-04-01T16:26:19;100388.13;;;8.79;100.00
78373;BME280;67656;52.074;4.758;2023-04-01T16:37:47;100412.72;;;8.76;100.00
78373;BME280;67656;52.074;4.758;2023-04-01T16:48:17;100433.03;;;8.71;100.00
78373;BME280;67656;52.074;4.758;2023-04-01T16:53:45;100441.00;;;8.68;100.00
78373;BME280;67656;52.074;4.758;2023-04-01T17:04:26;100463.16;;;8.59;100.00
78373;BME280;67656;52.074;4.758;2023-04-01T17:14:57;100486.19;;;8.51;100.00
78373;BME280;67656;52.074;4.758;2023-04-01T17:46:37;100564.97;;;8.16;100.00
78373;BME280;67656;52.074;4.758;2023-04-01T17:52:03;100571.16;;;8.13;100.00
78373;BME280;67656;52.074;4.758;2023-04-01T18:02:39;100602.16;;;7.97;100.00
78373;BME280;67656;52.074;4.758;2023-04-01T18:13:12;100631.25;;;7.88;100.00
78373;BME280;67656;52.074;4.758;2023-04-01T18:18:46;100638.22;;;7.89;100.00
78373;BME280;67656;52.074;4.758;2023-04-01T18:23:54;100643.69;;;7.80;100.00
78373;BME280;67656;52.074;4.758;2023-04-01T18:39:51;100692.84;;;7.73;100.00
78373;BME280;67656;52.074;4.758;2023-04-01T18:45:17;100706.88;;;7.72;100.00
78373;BME280;67656;52.074;4.758;2023-04-01T18:50:40;100713.84;;;7.75;100.00
78373;BME280;67656;52.074;4.758;2023-04-01T18:56:01;100731.41;;;7.73;100.00
78373;BME280;67656;52.074;4.758;2023-04-01T19:06:43;100742.84;;;7.68;100.00
78373;BME280;67656;52.074;4.758;2023-04-01T19:17:16;100768.38;;;7.60;100.00
78373;BME280;67656;52.074;4.758;2023-04-01T19:27:43;100793.16;;;7.44;100.00
78373;BME280;67656;52.074;4.758;2023-04-01T19:38:15;100813.50;;;7.29;100.00
78373;BME280;67656;52.074;4.758;2023-04-01T19:48:48;100840.81;;;7.16;100.00
78373;BME280;67656;52.074;4.758;2023-04-01T19:54:09;100837.34;;;7.14;100.00
78373;BME280;67656;52.074;4.758;2023-04-01T19:59:21;100856.66;;;7.10;100.00
78373;BME280;67656;52.074;4.758;2023-04-01T20:04:36;100868.97;;;7.04;100.00
78373;BME280;67656;52.074;4.758;2023-04-01T20:14:53;100890.94;;;6.97;100.00
78373;BME280;67656;52.074;4.758;2023-04-01T20:20:01;100902.28;;;6.98;100.00
78373;BME280;67656;52.074;4.758;2023-04-01T20:25:15;100907.56;;;6.96;100.00
78373;BME280;67656;52.074;4.758;2023-04-01T20:35:51;100940.09;;;6.80;100.00
78373;BME280;67656;52.074;4.758;2023-04-01T20:41:16;100940.22;;;6.67;100.00
78373;BME280;67656;52.074;4.758;2023-04-01T20:51:54;100976.97;;;6.64;100.00
78373;BME280;67656;52.074;4.758;2023-04-01T21:02:53;100987.50;;;6.59;100.00
78373;BME280;67656;52.074;4.758;2023-04-01T21:13:27;101012.03;;;6.51;100.00
78373;BME280;67656;52.074;4.758;2023-04-01T21:45:03;101072.50;;;6.29;100.00
78373;BME280;67656;52.074;4.758;2023-04-01T22:32:44;101169.63;;;5.89;100.00
78373;BME280;67656;52.074;4.758;2023-04-01T22:43:01;101187.09;;;5.87;100.00
78373;BME280;67656;52.074;4.758;2023-04-01T22:48:37;101199.31;;;5.88;100.00
78373;BME280;67656;52.074;4.758;2023-04-01T22:53:44;101204.59;;;5.84;100.00
78373;BME280;67656;52.074;4.758;2023-04-01T23:04:38;101222.06;;;5.78;100.00
78373;BME280;67656;52.074;4.758;2023-04-01T23:09:40;101237.75;;;5.79;100.00
78373;BME280;67656;52.074;4.758;2023-04-01T23:14:50;101241.25;;;5.75;100.00
78373;BME280;67656;52.074;4.758;2023-04-01T23:25:16;101256.97;;;5.69;100.00
78373;BME280;67656;52.074;4.758;2023-04-01T23:40:53;101289.28;;;5.65;100.00
78373;BME280;67656;52.074;4.758;2023-04-01T23:45:58;101282.31;;;5.58;100.00
78373;BME280;67656;52.074;4.758;2023-04-01T23:51:00;101298.00;;;5.59;100.00
78373;BME280;67656;52.074;4.758;2023-04-01T23:56:02;101298.91;;;5.60;100.00
